createdAt,value
2022-12-11T00:02:50.724Z,12.30
2022-12-11T00:07:58.055Z,19.70
2022-12-11T00:13:05.443Z,16.10
2022-12-11T00:18:15.724Z,14.00
2022-12-11T00:23:22.902Z,13.90
2022-12-11T00:28:30.021Z,12.50
2022-12-11T00:33:37.102Z,11.90
2022-12-11T00:38:45.009Z,10.10
2022-12-11T00:43:52.582Z,8.00
2022-12-11T00:49:00.435Z,7.70
2022-12-11T00:54:08.101Z,7.10
2022-12-11T00:59:15.281Z,6.90
2022-12-11T01:04:22.449Z,6.60
2022-12-11T01:09:46.608Z,6.30
2022-12-11T01:14:53.868Z,6.60
2022-12-11T01:20:01.019Z,7.90
2022-12-11T01:25:10.068Z,8.10
2022-12-11T01:30:18.187Z,7.80
2022-12-11T01:35:25.389Z,7.00
2022-12-11T01:40:33.221Z,6.90
2022-12-11T01:45:45.158Z,7.20
2022-12-11T01:50:55.879Z,5.80
2022-12-11T01:56:04.419Z,5.90
2022-12-11T02:01:16.660Z,4.90
2022-12-11T02:06:36.601Z,4.90
2022-12-11T02:11:55.027Z,10.40
2022-12-11T02:17:07.232Z,8.00
2022-12-11T02:27:37.706Z,10.20
2022-12-11T02:32:50.900Z,10.20
2022-12-11T02:38:03.319Z,12.30
2022-12-11T02:43:13.348Z,14.50
2022-12-11T02:48:22.426Z,14.10
2022-12-11T02:53:32.862Z,14.80
2022-12-11T02:58:44.820Z,10.80
2022-12-11T03:03:52.146Z,7.90
2022-12-11T03:08:59.341Z,10.30
2022-12-11T03:14:07.262Z,9.60
2022-12-11T03:19:23.886Z,8.50
2022-12-11T03:24:38.967Z,9.80
2022-12-11T03:29:55.802Z,9.10
2022-12-11T03:35:07.128Z,7.90
2022-12-11T03:40:19.347Z,7.30
2022-12-11T03:45:30.628Z,8.70
2022-12-11T03:50:38.987Z,8.70
2022-12-11T03:55:47.709Z,8.20
2022-12-11T04:00:54.870Z,7.50
2022-12-11T04:06:01.979Z,7.40
2022-12-11T04:11:28.500Z,7.00
2022-12-11T04:16:35.751Z,7.20
2022-12-11T04:21:59.748Z,8.80
2022-12-11T04:27:07.099Z,7.70
2022-12-11T04:32:14.179Z,7.30
2022-12-11T04:37:21.386Z,7.90
2022-12-11T04:42:28.588Z,8.20
2022-12-11T04:47:36.199Z,7.50
2022-12-11T04:52:43.541Z,8.90
2022-12-11T04:57:50.570Z,6.80
2022-12-11T05:02:57.711Z,8.70
2022-12-11T05:08:05.688Z,8.90
2022-12-11T05:13:12.859Z,7.50
2022-12-11T05:18:20.340Z,8.70
2022-12-11T05:23:27.548Z,7.60
2022-12-11T05:28:36.509Z,8.80
2022-12-11T05:33:43.581Z,7.40
2022-12-11T05:38:51.191Z,6.40
2022-12-11T05:43:58.461Z,5.60
2022-12-11T05:49:06.159Z,7.00
2022-12-11T05:54:13.667Z,9.60
2022-12-11T05:59:21.431Z,8.20
2022-12-11T06:04:28.589Z,5.80
2022-12-11T06:09:35.701Z,6.80
2022-12-11T06:14:42.920Z,10.20
2022-12-11T06:19:50.065Z,9.20
2022-12-11T06:24:57.301Z,10.10
2022-12-11T06:30:04.625Z,10.10
2022-12-11T06:35:13.058Z,9.20
2022-12-11T06:40:21.201Z,6.80
2022-12-11T06:45:28.369Z,5.30
2022-12-11T06:50:35.748Z,7.00
2022-12-11T06:55:43.907Z,6.30
2022-12-11T07:00:50.993Z,5.50
2022-12-11T07:06:01.201Z,6.20
2022-12-11T07:11:10.518Z,5.40
2022-12-11T07:16:19.331Z,5.50
2022-12-11T07:21:26.586Z,4.70
2022-12-11T07:26:33.862Z,5.30
2022-12-11T07:31:41.065Z,6.20
2022-12-11T07:36:48.300Z,5.60
2022-12-11T07:41:55.630Z,14.60
2022-12-11T07:47:02.941Z,9.80
2022-12-11T07:52:10.540Z,12.40
2022-12-11T07:57:18.359Z,11.00
2022-12-11T08:02:25.598Z,6.80
2022-12-11T08:07:32.780Z,4.60
2022-12-11T08:12:39.910Z,16.30
2022-12-11T08:17:47.067Z,15.00
2022-12-11T08:22:58.924Z,14.70
2022-12-11T08:33:12.159Z,11.70
2022-12-11T08:38:25.011Z,33.10
2022-12-11T08:43:32.587Z,23.40
2022-12-11T08:48:41.260Z,15.20
2022-12-11T08:53:48.761Z,12.20
2022-12-11T08:58:56.370Z,29.40
2022-12-11T09:04:03.509Z,20.10
2022-12-11T09:09:10.867Z,14.30
2022-12-11T09:14:18.048Z,15.90
2022-12-11T09:19:30.611Z,17.00
2022-12-11T09:24:39.508Z,23.70
2022-12-11T09:29:46.791Z,21.30
2022-12-11T09:34:55.627Z,17.40
2022-12-11T09:40:07.509Z,17.80
2022-12-11T09:45:18.478Z,14.10
2022-12-11T09:50:28.584Z,16.50
2022-12-11T09:55:44.985Z,14.10
2022-12-11T10:00:57.759Z,13.20
2022-12-11T10:06:09.580Z,11.60
2022-12-11T10:11:36.041Z,9.80
2022-12-11T10:16:46.261Z,10.20
2022-12-11T10:21:54.704Z,7.60
2022-12-11T10:27:13.260Z,15.80
2022-12-11T10:32:26.721Z,14.30
2022-12-11T10:37:34.362Z,25.50
2022-12-11T10:42:45.656Z,16.70
2022-12-11T10:48:03.383Z,26.60
2022-12-11T10:53:21.901Z,18.00
2022-12-11T10:58:34.545Z,11.00
2022-12-11T11:03:55.981Z,16.30
2022-12-11T11:09:04.191Z,14.00
2022-12-11T11:14:19.350Z,16.20
2022-12-11T11:19:31.308Z,22.60
2022-12-11T11:24:41.810Z,24.50
2022-12-11T11:29:53.153Z,19.00
2022-12-11T11:35:19.801Z,18.40
2022-12-11T11:53:53.196Z,28.00
2022-12-11T11:59:15.982Z,18.10
2022-12-11T12:04:23.685Z,26.10
2022-12-11T12:09:45.462Z,26.80
2022-12-11T12:15:09.241Z,21.60
2022-12-11T12:20:30.507Z,35.40
2022-12-11T12:25:43.922Z,19.30
2022-12-11T12:31:06.385Z,25.60
2022-12-11T12:41:30.626Z,22.10
2022-12-11T12:46:57.175Z,23.20
2022-12-11T12:52:08.367Z,19.00
2022-12-11T12:57:16.779Z,14.50
2022-12-11T13:02:24.375Z,10.20
2022-12-11T13:07:34.725Z,7.40
2022-12-11T13:12:49.157Z,12.90
2022-12-11T13:17:56.974Z,12.90
2022-12-11T13:23:31.541Z,26.30
2022-12-11T13:28:52.245Z,27.30
2022-12-11T13:34:05.871Z,25.10
2022-12-11T13:39:23.060Z,25.30
2022-12-11T13:44:33.342Z,20.90
2022-12-11T13:49:44.373Z,24.30
2022-12-11T13:54:55.999Z,25.70
2022-12-11T14:00:03.831Z,19.20
2022-12-11T14:05:15.962Z,24.70
2022-12-11T14:10:26.589Z,13.10
2022-12-11T14:15:35.752Z,13.00
2022-12-11T14:20:43.322Z,14.40
2022-12-11T14:25:59.191Z,12.60
2022-12-11T14:31:08.474Z,15.80
2022-12-11T14:36:18.666Z,7.00
2022-12-11T14:41:31.004Z,10.80
2022-12-11T14:46:44.860Z,10.00
2022-12-11T14:51:55.619Z,12.60
2022-12-11T14:57:08.043Z,17.70
2022-12-11T15:02:28.696Z,19.60
2022-12-11T15:07:36.760Z,22.60
2022-12-11T15:12:49.295Z,19.50
2022-12-11T15:17:56.975Z,17.70
2022-12-11T15:23:05.009Z,12.50
2022-12-11T15:28:33.034Z,7.70
2022-12-11T15:33:49.390Z,13.40
2022-12-11T15:38:56.950Z,13.30
2022-12-11T15:44:05.930Z,20.10
2022-12-11T15:49:15.885Z,21.00
2022-12-11T15:54:23.360Z,19.50
2022-12-11T15:59:31.296Z,27.10
2022-12-11T16:04:39.004Z,36.70
2022-12-11T16:09:46.450Z,27.60
2022-12-11T16:14:54.310Z,27.00
2022-12-11T16:20:01.736Z,26.40
2022-12-11T16:25:10.563Z,35.60
2022-12-11T16:30:19.110Z,33.70
2022-12-11T16:35:26.912Z,25.50
2022-12-11T16:40:34.815Z,18.40
2022-12-11T16:45:42.434Z,20.00
2022-12-11T16:50:51.388Z,21.10
2022-12-11T16:55:58.848Z,18.70
2022-12-11T17:01:14.425Z,17.60
2022-12-11T17:06:22.287Z,19.50
2022-12-11T17:11:29.743Z,15.60
2022-12-11T17:16:37.224Z,17.90
2022-12-11T17:21:51.157Z,22.10
2022-12-11T17:27:00.368Z,16.50
2022-12-11T17:32:08.086Z,14.80
2022-12-11T17:37:15.701Z,10.70
2022-12-11T17:42:23.008Z,11.40
2022-12-11T17:47:30.413Z,9.50
2022-12-11T17:52:44.026Z,10.30
2022-12-11T17:57:52.173Z,11.00
2022-12-11T18:02:59.792Z,9.30
2022-12-11T18:08:08.164Z,11.10
2022-12-11T18:13:15.674Z,9.70
2022-12-11T18:18:23.264Z,11.60
2022-12-11T18:23:31.374Z,20.70
2022-12-11T18:28:38.797Z,18.50
2022-12-11T18:33:47.784Z,17.70
2022-12-11T18:38:55.186Z,18.10
2022-12-11T18:44:09.334Z,21.40
2022-12-11T18:49:17.330Z,14.20
2022-12-11T18:54:24.807Z,12.60
2022-12-11T18:59:32.367Z,11.80
2022-12-11T19:04:39.848Z,11.20
2022-12-11T19:09:48.448Z,11.80
2022-12-11T19:14:56.410Z,12.40
2022-12-11T19:20:19.049Z,13.00
2022-12-11T19:25:31.704Z,8.90
2022-12-11T19:30:43.285Z,9.70
2022-12-11T19:36:01.927Z,10.30
2022-12-11T19:41:14.324Z,8.80
2022-12-11T19:46:22.684Z,7.90
2022-12-11T19:51:34.104Z,7.80
2022-12-11T19:56:41.816Z,7.90
2022-12-11T20:01:49.831Z,6.90
2022-12-11T20:06:57.244Z,9.80
2022-12-11T20:12:07.064Z,8.70
2022-12-11T20:17:15.259Z,9.50
2022-12-11T20:22:22.732Z,10.70
2022-12-11T20:27:30.137Z,12.20
2022-12-11T20:32:37.697Z,8.80
2022-12-11T20:37:45.593Z,7.70
2022-12-11T20:42:53.038Z,6.50
2022-12-11T20:48:00.366Z,7.20
2022-12-11T20:53:07.699Z,5.40
2022-12-11T20:58:15.187Z,6.10
2022-12-11T21:03:22.698Z,6.80
2022-12-11T21:08:30.410Z,6.10
2022-12-11T21:13:38.560Z,8.00
2022-12-11T21:18:47.063Z,5.70
2022-12-11T21:23:54.702Z,5.80
2022-12-11T21:29:02.515Z,8.30
2022-12-11T21:34:11.083Z,28.20
2022-12-11T21:39:18.619Z,29.80
2022-12-11T21:45:37.131Z,46.10
2022-12-11T21:49:53.948Z,34.40
2022-12-11T21:55:01.248Z,20.60
2022-12-11T22:00:10.538Z,24.10
2022-12-11T22:05:20.602Z,19.10
2022-12-11T22:10:29.739Z,28.20
2022-12-11T22:15:37.698Z,30.80
2022-12-11T22:20:45.508Z,27.00
2022-12-11T22:25:55.009Z,20.60
2022-12-11T22:31:02.754Z,18.10
2022-12-11T22:36:11.978Z,16.40
2022-12-11T22:41:25.217Z,12.30
2022-12-11T22:46:33.389Z,16.20
2022-12-11T22:51:41.241Z,21.80
2022-12-11T22:56:48.778Z,22.70
2022-12-11T23:01:56.487Z,12.30
2022-12-11T23:07:04.881Z,14.00
2022-12-11T23:12:13.168Z,13.20
2022-12-11T23:17:21.007Z,20.00
2022-12-11T23:22:28.412Z,19.50
2022-12-11T23:27:36.775Z,17.10
2022-12-11T23:32:44.104Z,14.20
2022-12-11T23:37:51.762Z,18.60
2022-12-11T23:42:59.121Z,9.30
2022-12-11T23:48:06.652Z,6.00
2022-12-11T23:53:14.535Z,4.50
2022-12-11T23:58:22.034Z,3.60
